Time;durP1;ratioP1;P1;durP2;ratioP2;P2;SDS_P1;SDS_P2;PMS_P1;PMS_P2;Temp;Humidity;BMP_temperature;BMP_pressure;BME280_temperature;BME280_humidity;BME280_pressure;Samples;Min_cycle;Max_cycle;Signal;HPM_P1;HPM_P2
2022/11/24 00:01:53;;;;;;;7.13;1.97;;;9.20;99.90;;;;;;5061768;28;20411;-72
2022/11/24 00:04:19;;;;;;;4.70;1.53;;;9.20;99.90;;;;;;5055424;28;20411;-72
2022/11/24 00:06:44;;;;;;;5.70;1.70;;;9.30;99.90;;;;;;5060268;28;20407;-73
2022/11/24 00:09:10;;;;;;;6.15;1.80;;;9.30;99.90;;;;;;5060464;28;20459;-72
2022/11/24 00:11:36;;;;;;;6.82;2.28;;;9.30;99.90;;;;;;5063222;28;20415;-72
2022/11/24 00:14:03;;;;;;;4.67;1.60;;;9.30;99.90;;;;;;5060489;28;20743;-72
2022/11/24 00:16:34;;;;;;;7.22;2.28;;;9.20;99.90;;;;;;5054811;28;20407;-71
2022/11/24 00:19:02;;;;;;;4.43;2.03;;;9.30;99.90;;;;;;5060392;28;20380;-71
2022/11/24 00:21:29;;;;;;;5.35;1.80;;;9.20;99.90;;;;;;5058575;28;20405;-72
2022/11/24 00:23:55;;;;;;;6.05;1.80;;;9.20;99.90;;;;;;5059530;28;20432;-71
2022/11/24 00:26:26;;;;;;;7.45;1.90;;;9.20;99.90;;;;;;5049919;28;20400;-72
2022/11/24 00:28:54;;;;;;;6.50;1.60;;;9.20;99.90;;;;;;5062599;28;20821;-71
2022/11/24 00:31:22;;;;;;;4.85;1.67;;;9.30;99.90;;;;;;5048232;28;20384;-73
2022/11/24 00:33:49;;;;;;;6.80;2.25;;;9.30;99.90;;;;;;5049730;28;20794;-71
2022/11/24 00:36:16;;;;;;;5.82;2.20;;;9.40;99.90;;;;;;5058087;28;20396;-71
2022/11/24 00:38:42;;;;;;;6.63;2.25;;;9.40;99.90;;;;;;5051666;28;20860;-71
2022/11/24 00:41:08;;;;;;;6.47;2.20;;;9.50;99.90;;;;;;5058618;28;20393;-71
2022/11/24 00:43:33;;;;;;;4.55;1.67;;;9.50;99.90;;;;;;5050788;28;20381;-69
2022/11/24 00:45:59;;;;;;;5.25;2.30;;;9.50;99.90;;;;;;5050597;28;20407;-70
2022/11/24 00:48:25;;;;;;;4.97;1.80;;;9.50;99.90;;;;;;5059604;28;20424;-71
2022/11/24 00:50:56;;;;;;;6.15;1.88;;;9.50;99.90;;;;;;5047923;28;20409;-70
2022/11/24 00:53:22;;;;;;;7.60;2.30;;;9.50;99.90;;;;;;5058763;28;20905;-70
2022/11/24 00:55:49;;;;;;;9.27;1.90;;;9.50;99.90;;;;;;5057940;28;20406;-71
2022/11/24 00:58:14;;;;;;;6.80;2.05;;;9.50;99.90;;;;;;5059524;28;20405;-69
2022/11/24 01:00:40;;;;;;;5.07;2.17;;;9.50;99.90;;;;;;5055628;28;20481;-72
2022/11/24 01:03:05;;;;;;;7.27;2.30;;;9.60;99.90;;;;;;5060037;28;20435;-70
2022/11/24 01:05:34;;;;;;;10.00;2.20;;;9.50;99.90;;;;;;5057269;28;20966;-72
2022/11/24 01:08:00;;;;;;;10.55;2.28;;;9.60;99.90;;;;;;5056549;28;20432;-72
2022/11/24 01:10:25;;;;;;;4.73;1.77;;;9.60;99.90;;;;;;5061313;28;20915;-71
2022/11/24 01:12:51;;;;;;;6.20;2.13;;;9.60;99.90;;;;;;5058886;28;20893;-70
2022/11/24 01:15:16;;;;;;;6.10;2.20;;;9.50;99.90;;;;;;5054548;28;20405;-70
2022/11/24 01:17:42;;;;;;;5.60;2.00;;;9.50;99.90;;;;;;5060389;28;20445;-71
2022/11/24 01:20:08;;;;;;;7.22;3.08;;;9.50;99.90;;;;;;5057847;28;20392;-69
2022/11/24 01:22:34;;;;;;;8.65;2.00;;;9.50;99.90;;;;;;5055163;28;20403;-71
2022/11/24 01:24:59;;;;;;;8.20;2.38;;;9.50;99.90;;;;;;5060126;28;20478;-70
2022/11/24 01:27:25;;;;;;;4.65;2.00;;;9.50;99.90;;;;;;5059909;28;20422;-70
2022/11/24 01:29:50;;;;;;;4.80;1.70;;;9.50;99.90;;;;;;5064899;28;20782;-72
2022/11/24 01:32:16;;;;;;;6.55;2.00;;;9.50;99.90;;;;;;5064211;28;20416;-71
2022/11/24 01:34:42;;;;;;;9.13;2.28;;;9.50;99.90;;;;;;5053726;28;20406;-70
2022/11/24 01:37:07;;;;;;;8.55;2.40;;;9.50;99.90;;;;;;5060659;28;20965;-70
2022/11/24 01:39:33;;;;;;;10.60;2.60;;;9.50;99.90;;;;;;5060604;28;20401;-69
2022/11/24 01:42:01;;;;;;;6.70;2.10;;;9.50;99.90;;;;;;5055456;28;20799;-71
2022/11/24 01:44:29;;;;;;;5.60;2.00;;;9.50;99.90;;;;;;5060232;28;20399;-70
2022/11/24 01:47:01;;;;;;;8.80;2.47;;;9.50;99.90;;;;;;5060577;28;20920;-70
2022/11/24 01:49:40;;;;;;;7.75;2.28;;;9.40;99.90;;;;;;5051913;28;20435;-70
2022/11/24 01:52:17;;;;;;;9.35;2.35;;;9.40;99.90;;;;;;5057734;28;20887;-69
2022/11/24 01:54:50;;;;;;;10.00;2.80;;;9.40;99.90;;;;;;5057249;28;20413;-70
2022/11/24 01:57:25;;;;;;;11.80;2.75;;;9.40;99.90;;;;;;5057935;28;20409;-70
2022/11/24 01:59:54;;;;;;;7.75;2.65;;;9.40;99.90;;;;;;5045565;28;20408;-70
2022/11/24 02:02:20;;;;;;;8.70;2.78;;;9.30;99.90;;;;;;5050263;28;20915;-70
2022/11/24 02:04:47;;;;;;;10.77;2.60;;;9.30;99.90;;;;;;5061402;28;20471;-70
2022/11/24 02:07:13;;;;;;;5.93;2.13;;;9.40;99.90;;;;;;5067763;28;20715;-70
2022/11/24 02:09:47;;;;;;;9.32;2.60;;;9.40;99.90;;;;;;5056759;28;20772;-70
2022/11/24 02:12:13;;;;;;;5.03;2.33;;;9.30;99.90;;;;;;5062311;28;20935;-70
2022/11/24 02:14:40;;;;;;;10.20;2.90;;;9.30;99.90;;;;;;5053015;28;20405;-70
2022/11/24 02:17:07;;;;;;;7.57;2.20;;;9.30;99.90;;;;;;5062857;28;20781;-70
2022/11/24 02:19:38;;;;;;;7.68;2.40;;;9.20;99.90;;;;;;5057304;28;20455;-70
2022/11/24 02:22:04;;;;;;;10.25;3.20;;;9.20;99.90;;;;;;5057902;28;20423;-70
2022/11/24 02:24:36;;;;;;;6.07;2.03;;;9.20;99.90;;;;;;5063057;28;20970;-70
2022/11/24 02:27:02;;;;;;;4.80;2.00;;;9.30;99.90;;;;;;5066994;28;20408;-71
2022/11/24 02:29:28;;;;;;;7.80;2.60;;;9.30;99.90;;;;;;5051753;28;20401;-70
2022/11/24 02:32:01;;;;;;;8.37;2.53;;;9.30;99.90;;;;;;5064796;28;20462;-70
2022/11/24 02:34:27;;;;;;;8.63;2.70;;;9.20;99.90;;;;;;5060765;28;20408;-70
2022/11/24 02:36:53;;;;;;;10.70;2.83;;;9.20;99.90;;;;;;5065284;28;20391;-70
2022/11/24 02:39:18;;;;;;;14.03;2.90;;;9.20;99.90;;;;;;5066300;28;20830;-70
2022/11/24 02:41:52;;;;;;;8.03;2.70;;;9.20;99.90;;;;;;5061178;28;20498;-70
2022/11/24 02:44:20;;;;;;;8.88;2.63;;;9.20;99.90;;;;;;5060358;28;20412;-70
2022/11/24 02:46:46;;;;;;;7.53;2.60;;;9.20;99.90;;;;;;5064055;28;20403;-70
2022/11/24 02:49:11;;;;;;;8.40;2.47;;;9.20;99.90;;;;;;5063865;28;20425;-70
2022/11/24 02:51:37;;;;;;;10.53;2.50;;;9.30;99.90;;;;;;5061968;28;20416;-70
2022/11/24 02:54:02;;;;;;;8.10;2.53;;;9.20;99.90;;;;;;5060250;28;20879;-71
2022/11/24 02:56:28;;;;;;;12.47;3.70;;;9.30;99.90;;;;;;5060270;28;20577;-71
2022/11/24 02:58:53;;;;;;;9.48;2.70;;;9.30;99.90;;;;;;5066466;28;20403;-70
2022/11/24 03:01:19;;;;;;;10.18;2.50;;;9.40;99.90;;;;;;5062492;28;20442;-70
2022/11/24 03:03:45;;;;;;;13.18;4.10;;;9.40;99.90;;;;;;5060150;28;20847;-70
2022/11/24 03:06:10;;;;;;;12.10;2.60;;;9.40;99.90;;;;;;5060644;28;20432;-71
2022/11/24 03:08:36;;;;;;;9.77;3.08;;;9.30;99.90;;;;;;5067167;28;20429;-70
2022/11/24 03:11:02;;;;;;;9.00;2.67;;;9.30;99.90;;;;;;5059830;28;20805;-70
2022/11/24 03:13:28;;;;;;;8.30;2.30;;;9.30;99.90;;;;;;5067433;28;20437;-71
2022/11/24 03:15:53;;;;;;;11.48;2.40;;;9.30;99.90;;;;;;5062616;28;20397;-71
2022/11/24 03:18:19;;;;;;;11.57;2.80;;;9.40;99.90;;;;;;5064324;28;20434;-70
2022/11/24 03:20:44;;;;;;;10.13;2.95;;;9.30;99.90;;;;;;5060474;28;20401;-70
2022/11/24 03:23:10;;;;;;;9.30;3.15;;;9.40;99.90;;;;;;5065337;28;20896;-69
2022/11/24 03:25:36;;;;;;;12.48;2.60;;;9.30;99.90;;;;;;5060476;28;20408;-71
2022/11/24 03:28:01;;;;;;;7.88;2.75;;;9.30;99.90;;;;;;5061426;28;20392;-71
2022/11/24 03:30:27;;;;;;;8.20;2.50;;;9.40;99.90;;;;;;5065540;28;20405;-70
2022/11/24 03:32:52;;;;;;;10.43;3.80;;;9.30;99.90;;;;;;5062103;28;20531;-69
2022/11/24 03:35:19;;;;;;;7.87;2.70;;;9.30;99.90;;;;;;5061093;28;20391;-69
2022/11/24 03:37:45;;;;;;;10.45;2.55;;;9.30;99.90;;;;;;5064473;28;20375;-69
2022/11/24 03:40:10;;;;;;;9.83;2.67;;;9.40;99.90;;;;;;5065273;28;20904;-69
2022/11/24 03:42:36;;;;;;;9.00;2.67;;;9.40;99.90;;;;;;5060728;28;20871;-70
2022/11/24 03:45:02;;;;;;;9.17;3.03;;;9.40;99.90;;;;;;5063516;28;20415;-70
2022/11/24 03:47:27;;;;;;;10.90;2.40;;;9.40;99.90;;;;;;5060708;28;20401;-70
2022/11/24 03:49:53;;;;;;;11.00;2.83;;;9.40;99.90;;;;;;5064751;28;20411;-69
2022/11/24 03:52:18;;;;;;;12.80;2.70;;;9.30;99.90;;;;;;5055987;28;20541;-70
2022/11/24 03:54:46;;;;;;;10.48;2.65;;;9.30;99.90;;;;;;5041719;28;20947;-69
2022/11/24 03:57:12;;;;;;;7.85;2.58;;;9.30;99.90;;;;;;5057413;28;20417;-70
2022/11/24 03:59:38;;;;;;;9.73;2.95;;;9.30;99.90;;;;;;5037725;28;20917;-69
2022/11/24 04:02:03;;;;;;;13.20;3.00;;;9.40;99.90;;;;;;5063195;28;20540;-70
2022/11/24 04:04:29;;;;;;;8.30;3.27;;;9.40;99.90;;;;;;5064065;28;20441;-70
2022/11/24 04:06:54;;;;;;;9.60;3.10;;;9.40;99.90;;;;;;5059026;28;20405;-70
2022/11/24 04:09:20;;;;;;;9.27;2.60;;;9.50;99.90;;;;;;5062145;28;20562;-70
2022/11/24 04:14:29;;;;;;;14.13;4.47;;;9.60;99.90;;;;;;5061452;28;20406;-72
2022/11/24 04:16:55;;;;;;;15.73;3.40;;;9.50;99.90;;;;;;5062710;28;20897;-71
2022/11/24 04:19:20;;;;;;;12.55;2.67;;;9.60;99.90;;;;;;5057322;28;20396;-70
2022/11/24 04:21:46;;;;;;;12.45;2.92;;;9.50;99.90;;;;;;5058992;28;20435;-70
2022/11/24 04:24:11;;;;;;;10.30;2.90;;;9.50;99.90;;;;;;5057786;28;20403;-69
2022/11/24 04:26:37;;;;;;;11.90;3.60;;;9.50;99.90;;;;;;5059418;28;20771;-73
2022/11/24 04:29:02;;;;;;;5.83;2.10;;;9.50;99.90;;;;;;5062862;28;20396;-69
2022/11/24 04:31:28;;;;;;;10.53;2.90;;;9.50;99.90;;;;;;5062109;28;20492;-71
2022/11/24 04:33:54;;;;;;;13.50;3.00;;;9.50;99.90;;;;;;5061610;28;20403;-70
2022/11/24 04:36:19;;;;;;;8.18;2.75;;;9.50;99.90;;;;;;5062280;28;20401;-70
2022/11/24 04:38:45;;;;;;;11.38;4.05;;;9.50;99.90;;;;;;5071645;28;20380;-70
2022/11/24 04:41:10;;;;;;;12.40;3.03;;;9.50;99.90;;;;;;5057914;28;20903;-70
2022/11/24 04:43:36;;;;;;;10.57;2.77;;;9.50;99.90;;;;;;5060580;28;20414;-70
2022/11/24 04:46:01;;;;;;;11.03;2.90;;;9.40;99.90;;;;;;5042548;28;20396;-69
2022/11/24 04:48:27;;;;;;;11.20;3.00;;;9.40;99.90;;;;;;5071265;28;20723;-72
2022/11/24 04:50:53;;;;;;;13.33;3.97;;;9.50;99.90;;;;;;5062966;28;20419;-71
2022/11/24 04:53:19;;;;;;;16.57;3.90;;;9.50;99.90;;;;;;5056030;28;20408;-70
2022/11/24 04:55:44;;;;;;;14.32;3.63;;;9.50;99.90;;;;;;5058165;28;20445;-72
2022/11/24 04:58:11;;;;;;;12.33;3.40;;;9.60;99.90;;;;;;5062524;28;20398;-70
2022/11/24 05:00:37;;;;;;;14.10;3.50;;;9.60;99.90;;;;;;5068129;28;20458;-72
2022/11/24 05:03:03;;;;;;;13.13;4.03;;;9.60;99.90;;;;;;5060723;28;20453;-70
2022/11/24 05:05:29;;;;;;;12.77;3.67;;;9.70;99.90;;;;;;5054829;28;20446;-71
2022/11/24 05:07:57;;;;;;;11.57;3.20;;;9.70;99.90;;;;;;5058981;28;20495;-71
2022/11/24 05:10:34;;;;;;;13.98;3.42;;;9.70;99.90;;;;;;5065164;28;20434;-70
2022/11/24 05:13:05;;;;;;;12.75;3.50;;;9.70;99.90;;;;;;5062017;28;20456;-71
2022/11/24 05:15:31;;;;;;;13.10;3.30;;;9.60;99.90;;;;;;5058566;28;20403;-70
2022/11/24 05:17:57;;;;;;;12.65;3.70;;;9.70;99.90;;;;;;5064491;28;20423;-70
2022/11/24 05:20:23;;;;;;;16.63;3.70;;;9.70;99.90;;;;;;5061976;28;20431;-70
2022/11/24 05:22:49;;;;;;;16.90;3.83;;;9.70;99.90;;;;;;5060874;28;20940;-70
2022/11/24 05:25:15;;;;;;;16.38;3.75;;;9.70;99.90;;;;;;5058526;28;20509;-71
2022/11/24 05:27:41;;;;;;;14.88;4.22;;;9.70;99.90;;;;;;5060900;28;20486;-70
2022/11/24 05:30:07;;;;;;;11.30;4.07;;;9.70;99.90;;;;;;5060624;28;20401;-70
2022/11/24 05:32:33;;;;;;;15.63;4.00;;;9.70;99.90;;;;;;5047109;28;20405;-70
2022/11/24 05:35:01;;;;;;;13.15;3.47;;;9.70;99.90;;;;;;5062861;28;20920;-71
2022/11/24 05:37:27;;;;;;;12.95;3.95;;;9.70;99.90;;;;;;5061702;28;20387;-70
2022/11/24 05:39:53;;;;;;;14.07;3.30;;;9.70;99.90;;;;;;5063682;28;20536;-71
2022/11/24 05:45:04;;;;;;;14.00;3.25;;;9.80;99.90;;;;;;5061848;28;20442;-70
2022/11/24 05:47:30;;;;;;;15.52;3.40;;;9.70;99.90;;;;;;5063079;28;20406;-70
2022/11/24 05:49:56;;;;;;;11.88;3.58;;;9.80;99.90;;;;;;5065924;28;20404;-69
2022/11/24 05:52:21;;;;;;;11.98;2.80;;;9.80;99.90;;;;;;5065386;28;20468;-70
2022/11/24 05:54:47;;;;;;;10.55;3.10;;;9.70;99.90;;;;;;5062066;28;20778;-72
2022/11/24 05:57:13;;;;;;;12.48;3.85;;;9.70;99.90;;;;;;5058983;28;20385;-70
2022/11/24 05:59:39;;;;;;;12.75;3.17;;;9.70;99.90;;;;;;5062980;28;20485;-70
2022/11/24 06:02:04;;;;;;;11.70;3.03;;;9.70;99.90;;;;;;5066900;28;20407;-70
2022/11/24 06:04:30;;;;;;;12.75;3.25;;;9.70;99.90;;;;;;5063203;28;20405;-70
2022/11/24 06:06:56;;;;;;;14.98;3.42;;;9.80;99.90;;;;;;5060993;28;20410;-72
2022/11/24 06:09:21;;;;;;;9.38;3.53;;;9.80;99.90;;;;;;5064429;28;20407;-73
2022/11/24 06:11:48;;;;;;;13.05;3.83;;;9.50;99.90;;;;;;5061350;28;20403;-72
2022/11/24 06:14:13;;;;;;;10.93;3.30;;;9.30;99.90;;;;;;5046523;28;20525;-72
2022/11/24 06:16:39;;;;;;;13.70;3.70;;;9.20;99.90;;;;;;5060519;28;20905;-72
2022/11/24 06:19:04;;;;;;;13.43;3.17;;;9.10;99.90;;;;;;5040904;28;20808;-73
2022/11/24 06:21:30;;;;;;;17.73;3.70;;;9.10;99.90;;;;;;5057397;28;20487;-73
2022/11/24 06:23:56;;;;;;;12.53;3.53;;;9.00;99.90;;;;;;5061739;28;20400;-73
2022/11/24 06:26:22;;;;;;;12.30;3.30;;;9.10;99.90;;;;;;5068962;28;20372;-72
2022/11/24 06:28:47;;;;;;;14.23;3.40;;;9.10;99.90;;;;;;5046939;28;20412;-71
2022/11/24 06:31:13;;;;;;;14.50;3.70;;;9.10;99.90;;;;;;5065522;28;20440;-70
2022/11/24 06:33:39;;;;;;;14.27;4.40;;;9.20;99.90;;;;;;5049906;28;20419;-71
2022/11/24 06:36:07;;;;;;;12.20;3.63;;;9.20;99.90;;;;;;5060119;28;20403;-70
2022/11/24 06:38:34;;;;;;;10.60;4.30;;;9.20;99.90;;;;;;5060788;28;20451;-70
2022/11/24 06:41:09;;;;;;;11.52;3.53;;;9.30;99.90;;;;;;5053839;28;20473;-69
2022/11/24 06:43:35;;;;;;;13.70;3.50;;;9.30;99.90;;;;;;5036910;28;20439;-69
2022/11/24 06:46:00;;;;;;;12.43;4.00;;;9.40;99.90;;;;;;5056890;28;20385;-69
2022/11/24 06:48:27;;;;;;;12.27;3.28;;;9.40;99.90;;;;;;5041597;28;20404;-69
2022/11/24 06:50:52;;;;;;;11.70;3.97;;;9.50;99.90;;;;;;5057944;28;20925;-69
2022/11/24 06:53:18;;;;;;;15.60;3.83;;;9.50;99.90;;;;;;5056237;28;20413;-68
2022/11/24 06:55:45;;;;;;;15.70;3.95;;;9.50;99.90;;;;;;5058633;28;20434;-71
2022/11/24 06:58:11;;;;;;;13.52;3.92;;;9.30;99.90;;;;;;5058155;28;20779;-72
2022/11/24 07:00:37;;;;;;;13.65;3.08;;;9.30;99.90;;;;;;5064095;28;20405;-71
2022/11/24 07:03:03;;;;;;;12.82;3.45;;;9.20;99.90;;;;;;5042088;28;20471;-71
2022/11/24 07:05:28;;;;;;;13.82;3.80;;;9.10;99.90;;;;;;5062333;28;20401;-71
2022/11/24 07:07:54;;;;;;;13.80;3.20;;;9.10;99.90;;;;;;5062040;28;20403;-70
2022/11/24 07:10:20;;;;;;;15.00;3.67;;;9.00;99.90;;;;;;5065788;28;20395;-71
2022/11/24 07:12:45;;;;;;;11.60;3.33;;;8.90;99.90;;;;;;5062343;28;20416;-72
2022/11/24 07:15:11;;;;;;;10.67;2.70;;;8.90;99.90;;;;;;5060135;28;20438;-71
2022/11/24 07:17:40;;;;;;;13.17;3.17;;;8.90;99.90;;;;;;5063145;28;20956;-71
2022/11/24 07:20:07;;;;;;;14.90;3.40;;;8.90;99.90;;;;;;5068101;28;20388;-70
2022/11/24 07:22:33;;;;;;;14.00;2.83;;;8.80;99.90;;;;;;5062704;28;20545;-68
2022/11/24 07:24:59;;;;;;;13.15;2.88;;;8.80;99.90;;;;;;5046709;28;20402;-69
2022/11/24 07:27:26;;;;;;;14.15;3.67;;;8.80;99.90;;;;;;5053912;28;20393;-69
2022/11/24 07:29:52;;;;;;;10.40;3.77;;;8.80;99.90;;;;;;5035248;28;20513;-70
2022/11/24 07:32:17;;;;;;;8.77;2.70;;;8.80;99.90;;;;;;5053029;28;20413;-69
2022/11/24 07:34:43;;;;;;;15.20;2.90;;;8.80;99.90;;;;;;5052399;28;20386;-70
2022/11/24 07:37:08;;;;;;;10.73;2.60;;;8.90;99.90;;;;;;5053105;28;20381;-69
2022/11/24 07:39:34;;;;;;;7.95;2.50;;;8.90;99.90;;;;;;5052995;28;20442;-69
2022/11/24 07:41:59;;;;;;;7.40;2.35;;;8.80;99.90;;;;;;5053002;28;20435;-69
2022/11/24 07:44:25;;;;;;;14.27;3.70;;;8.90;99.90;;;;;;5050601;28;20767;-69
2022/11/24 07:46:51;;;;;;;9.93;2.83;;;8.80;99.90;;;;;;5052873;28;20938;-69
2022/11/24 07:49:17;;;;;;;5.18;1.75;;;8.80;99.90;;;;;;5053298;28;20386;-69
2022/11/24 07:51:43;;;;;;;9.80;1.92;;;8.90;99.90;;;;;;5052910;28;20385;-70
2022/11/24 07:54:08;;;;;;;8.40;2.40;;;8.90;99.90;;;;;;5050501;28;20401;-70
2022/11/24 07:56:34;;;;;;;11.55;2.92;;;8.90;99.90;;;;;;5052817;28;20382;-69
2022/11/24 07:59:00;;;;;;;8.50;2.13;;;8.90;99.90;;;;;;5054198;28;20392;-70
2022/11/24 08:01:26;;;;;;;7.07;2.10;;;8.80;99.90;;;;;;5067053;28;20511;-70
2022/11/24 08:03:51;;;;;;;7.03;2.08;;;8.80;99.90;;;;;;5065936;28;20383;-69
2022/11/24 08:06:17;;;;;;;8.05;2.42;;;8.80;99.90;;;;;;5065060;28;20386;-70
2022/11/24 08:08:43;;;;;;;10.43;2.40;;;8.80;99.90;;;;;;5058689;28;20389;-70
2022/11/24 08:11:12;;;;;;;6.75;2.33;;;8.80;99.90;;;;;;5052351;28;20411;-70
2022/11/24 08:13:38;;;;;;;6.95;1.90;;;8.80;99.90;;;;;;5051384;28;20922;-70
2022/11/24 08:16:09;;;;;;;8.87;2.57;;;8.90;99.90;;;;;;5048584;28;20388;-71
2022/11/24 08:18:35;;;;;;;7.53;2.58;;;8.90;99.90;;;;;;5067848;28;20409;-70
2022/11/24 08:21:02;;;;;;;8.00;2.17;;;8.90;99.90;;;;;;5051707;28;20388;-69
2022/11/24 08:23:28;;;;;;;7.20;2.00;;;8.90;99.90;;;;;;5033951;28;20528;-70
2022/11/24 08:25:55;;;;;;;6.10;1.80;;;8.90;99.90;;;;;;5052667;28;20382;-70
2022/11/24 08:28:21;;;;;;;8.88;2.65;;;9.00;99.90;;;;;;5052811;28;20887;-70
2022/11/24 08:30:46;;;;;;;6.60;2.40;;;9.10;99.90;;;;;;5052197;28;20393;-70
2022/11/24 08:33:12;;;;;;;6.72;2.70;;;9.10;99.90;;;;;;5050241;28;20401;-70
2022/11/24 08:35:38;;;;;;;4.80;2.20;;;9.10;99.90;;;;;;5033656;28;20389;-71
2022/11/24 08:38:04;;;;;;;5.60;1.80;;;9.20;99.90;;;;;;5050886;28;20381;-71
2022/11/24 08:40:30;;;;;;;8.48;2.00;;;9.20;99.90;;;;;;5051842;28;20877;-71
2022/11/24 08:42:59;;;;;;;6.17;2.10;;;9.20;99.90;;;;;;5050555;28;20482;-70
2022/11/24 08:45:25;;;;;;;7.75;2.50;;;9.20;99.90;;;;;;5033768;28;20396;-71
2022/11/24 08:47:55;;;;;;;6.15;2.40;;;9.20;99.90;;;;;;5051118;28;20389;-69
2022/11/24 08:50:22;;;;;;;7.90;2.33;;;9.30;99.90;;;;;;5033715;28;20381;-69
2022/11/24 08:52:49;;;;;;;7.13;2.63;;;9.30;99.90;;;;;;5050205;28;20417;-70
2022/11/24 08:55:15;;;;;;;11.37;3.10;;;9.30;99.90;;;;;;5032907;28;20401;-71
2022/11/24 08:57:40;;;;;;;12.83;3.43;;;9.40;99.90;;;;;;5050323;28;20408;-70
2022/11/24 09:00:08;;;;;;;11.03;3.10;;;9.40;99.90;;;;;;5050726;28;20386;-70
2022/11/24 09:02:33;;;;;;;9.25;3.20;;;9.40;99.90;;;;;;5049766;28;20459;-70
2022/11/24 09:04:59;;;;;;;7.53;3.00;;;9.40;99.90;;;;;;5050652;28;20539;-70
2022/11/24 09:07:24;;;;;;;9.98;3.05;;;9.40;99.90;;;;;;5051008;28;20520;-70
2022/11/24 09:09:50;;;;;;;9.30;2.95;;;9.40;99.90;;;;;;5050870;28;20417;-70
2022/11/24 09:12:16;;;;;;;6.53;2.50;;;9.50;99.90;;;;;;5051235;28;20401;-70
2022/11/24 09:14:41;;;;;;;6.10;2.33;;;9.60;99.90;;;;;;5050374;28;20389;-70
2022/11/24 09:17:07;;;;;;;9.20;2.20;;;9.70;99.90;;;;;;5051293;28;20392;-70
2022/11/24 09:19:32;;;;;;;9.98;2.78;;;9.70;99.90;;;;;;5051100;28;20404;-69
2022/11/24 09:21:58;;;;;;;8.80;2.33;;;9.70;99.90;;;;;;5051256;28;20744;-69
2022/11/24 09:24:24;;;;;;;6.93;2.53;;;9.80;99.90;;;;;;5050240;28;20420;-70
2022/11/24 09:26:49;;;;;;;6.85;2.50;;;9.80;99.90;;;;;;5051545;28;20967;-69
2022/11/24 09:29:16;;;;;;;5.30;2.17;;;9.80;99.90;;;;;;5051052;28;20472;-69
2022/11/24 09:31:41;;;;;;;12.10;2.53;;;9.80;99.90;;;;;;5051020;28;20507;-69
2022/11/24 09:34:11;;;;;;;7.37;2.20;;;9.80;99.90;;;;;;5032163;28;20417;-69
2022/11/24 09:36:36;;;;;;;7.53;2.25;;;9.80;99.90;;;;;;5050903;28;20425;-70
2022/11/24 09:39:02;;;;;;;7.20;2.13;;;9.80;99.90;;;;;;5053619;28;20885;-69
2022/11/24 09:41:38;;;;;;;8.10;2.60;;;9.80;99.90;;;;;;5070740;28;20456;-70
2022/11/24 09:44:08;;;;;;;9.52;3.10;;;9.80;99.90;;;;;;5069995;28;20384;-71
2022/11/24 09:47:19;;;;;;;7.30;2.40;;;9.90;99.90;;;;;;5070838;28;20395;-71
2022/11/24 09:49:58;;;;;;;5.75;1.80;;;9.90;99.90;;;;;;5047119;28;20691;-70
2022/11/24 09:52:37;;;;;;;8.95;2.72;;;9.90;99.90;;;;;;5070436;28;20406;-69
2022/11/24 09:55:10;;;;;;;6.57;2.20;;;10.00;99.90;;;;;;5070427;28;20422;-70
2022/11/24 09:57:39;;;;;;;6.57;2.47;;;10.20;99.90;;;;;;5070694;28;20380;-70
2022/11/24 10:00:12;;;;;;;7.10;2.85;;;10.20;99.90;;;;;;5070460;28;20414;-70
2022/11/24 10:02:37;;;;;;;7.47;2.50;;;10.20;99.90;;;;;;5069778;28;20411;-70
2022/11/24 10:05:04;;;;;;;12.23;3.08;;;10.10;99.90;;;;;;5070407;28;20485;-69
2022/11/24 10:07:42;;;;;;;9.82;3.05;;;10.20;99.90;;;;;;5070567;28;20383;-70
2022/11/24 10:10:17;;;;;;;7.05;3.00;;;10.20;99.90;;;;;;5070373;28;20384;-70
2022/11/24 10:13:05;;;;;;;9.45;2.90;;;10.20;99.90;;;;;;5069679;28;20415;-70
2022/11/24 10:15:50;;;;;;;8.55;2.90;;;10.20;99.90;;;;;;5062102;28;20400;-69
2022/11/24 10:18:15;;;;;;;9.52;2.40;;;10.30;99.90;;;;;;5070490;28;20722;-70
2022/11/24 10:21:03;;;;;;;8.57;2.43;;;10.40;99.90;;;;;;5070400;28;20390;-69
2022/11/24 10:23:35;;;;;;;7.18;2.83;;;10.60;99.90;;;;;;5051838;28;20395;-70
2022/11/24 10:26:06;;;;;;;6.17;2.47;;;10.60;99.90;;;;;;5070075;28;20388;-71
2022/11/24 10:28:38;;;;;;;8.82;2.42;;;10.80;99.90;;;;;;5070347;28;20376;-70
2022/11/24 10:31:44;;;;;;;9.33;2.07;;;10.80;99.90;;;;;;5070153;28;20955;-70
2022/11/24 10:34:16;;;;;;;6.97;2.47;;;10.90;99.90;;;;;;5007393;28;20945;-70
2022/11/24 10:37:04;;;;;;;8.20;2.30;;;11.10;99.90;;;;;;5008304;28;20385;-71
2022/11/24 10:39:49;;;;;;;10.82;2.58;;;11.10;99.90;;;;;;5042788;28;20385;-70
2022/11/24 10:42:28;;;;;;;7.63;2.43;;;11.00;99.90;;;;;;5050206;28;20469;-70
2022/11/24 10:45:13;;;;;;;8.13;2.70;;;11.00;99.90;;;;;;5036083;28;21064;-71
2022/11/24 10:47:39;;;;;;;7.60;2.20;;;11.10;99.90;;;;;;5054820;28;20970;-70
2022/11/24 10:50:19;;;;;;;8.27;2.40;;;11.10;99.90;;;;;;5054330;28;20759;-70
2022/11/24 10:53:08;;;;;;;6.10;2.50;;;11.10;99.90;;;;;;5053220;28;21122;-70
2022/11/24 10:55:56;;;;;;;7.72;2.13;;;11.40;99.90;;;;;;5042902;28;20949;-69
2022/11/24 10:58:28;;;;;;;7.30;2.27;;;11.30;99.90;;;;;;5053647;28;20411;-69
2022/11/24 11:00:55;;;;;;;8.57;2.80;;;11.50;99.90;;;;;;5053967;28;20374;-70
2022/11/24 11:03:24;;;;;;;6.63;2.10;;;11.70;99.90;;;;;;5053278;28;20439;-70
2022/11/24 11:06:06;;;;;;;8.18;2.50;;;12.10;99.90;;;;;;5053632;28;20477;-70
2022/11/24 11:08:32;;;;;;;5.75;2.00;;;11.70;99.90;;;;;;5053661;28;20385;-70
2022/11/24 11:11:13;;;;;;;4.95;1.80;;;12.00;99.90;;;;;;5053655;28;21152;-70
2022/11/24 11:13:52;;;;;;;5.60;2.30;;;12.60;99.90;;;;;;5052745;28;20425;-70
2022/11/24 11:16:31;;;;;;;7.53;2.20;;;13.20;99.90;;;;;;5053530;28;20384;-70
2022/11/24 11:18:57;;;;;;;7.50;2.10;;;13.50;99.90;;;;;;5053368;28;20392;-71
2022/11/24 11:21:37;;;;;;;5.07;2.03;;;13.60;99.90;;;;;;5036140;28;20979;-70
2022/11/24 11:24:12;;;;;;;5.57;1.80;;;13.30;99.90;;;;;;5052902;28;20374;-70
2022/11/24 11:26:38;;;;;;;4.43;1.80;;;14.10;99.90;;;;;;5054468;28;20427;-70
2022/11/24 11:29:06;;;;;;;6.60;1.98;;;14.00;99.90;;;;;;5053405;28;20451;-70
2022/11/24 11:31:34;;;;;;;6.45;2.00;;;14.10;99.90;;;;;;5053146;28;20427;-70
2022/11/24 11:34:08;;;;;;;7.38;2.55;;;14.10;99.90;;;;;;5052341;28;20455;-70
2022/11/24 11:36:34;;;;;;;5.68;2.15;;;13.60;99.90;;;;;;5053188;28;20378;-70
2022/11/24 11:39:01;;;;;;;6.15;2.03;;;13.90;99.90;;;;;;5056068;28;20895;-70
2022/11/24 11:41:35;;;;;;;5.70;1.80;;;14.00;99.90;;;;;;5073240;28;20394;-71
2022/11/24 11:44:21;;;;;;;6.05;2.05;;;14.20;99.90;;;;;;5072609;28;20392;-70
2022/11/24 11:46:47;;;;;;;7.35;2.10;;;14.10;99.50;;;;;;5073147;28;20387;-70
2022/11/24 11:49:13;;;;;;;4.57;1.80;;;13.90;99.90;;;;;;5073219;28;20430;-70
2022/11/24 11:51:38;;;;;;;7.60;2.22;;;14.10;99.60;;;;;;5054949;28;20471;-71
2022/11/24 11:54:34;;;;;;;4.30;1.80;;;13.90;99.90;;;;;;5071067;28;20492;-70
2022/11/24 11:57:10;;;;;;;6.97;2.15;;;14.00;99.40;;;;;;5072725;28;20376;-71
2022/11/24 11:59:53;;;;;;;7.40;2.30;;;14.20;98.20;;;;;;5072903;28;20376;-70
2022/11/24 12:02:31;;;;;;;5.85;2.15;;;14.60;96.80;;;;;;5069937;28;20445;-71
2022/11/24 12:05:21;;;;;;;5.73;2.43;;;13.90;98.80;;;;;;5067597;28;20393;-71
2022/11/24 12:08:01;;;;;;;7.13;2.22;;;12.60;99.90;;;;;;5054394;28;20467;-70
2022/11/24 12:10:52;;;;;;;6.00;2.10;;;12.50;99.90;;;;;;5072616;28;20531;-71
2022/11/24 12:13:41;;;;;;;7.05;2.13;;;12.50;99.90;;;;;;5069767;28;20889;-70
2022/11/24 12:16:31;;;;;;;6.75;2.17;;;11.90;99.90;;;;;;5052546;28;20413;-71
2022/11/24 12:19:15;;;;;;;5.35;1.88;;;11.90;99.90;;;;;;5052575;28;20409;-70
2022/11/24 12:22:08;;;;;;;6.95;2.03;;;11.90;99.90;;;;;;5052272;28;20405;-70
2022/11/24 12:25:01;;;;;;;7.05;2.10;;;12.10;99.90;;;;;;5051612;28;20504;-72
2022/11/24 12:27:48;;;;;;;6.90;2.20;;;11.80;99.90;;;;;;5061794;28;20920;-70
2022/11/24 12:30:17;;;;;;;10.50;2.60;;;11.50;99.90;;;;;;5046127;28;20406;-70
2022/11/24 12:33:15;;;;;;;5.13;2.03;;;11.60;99.90;;;;;;5059897;28;20410;-72
2022/11/24 12:36:28;;;;;;;7.88;2.50;;;11.70;99.90;;;;;;5060171;28;20377;-70
2022/11/24 12:39:18;;;;;;;4.32;2.00;;;11.70;99.90;;;;;;4973421;28;20384;-70
2022/11/24 12:42:02;;;;;;;7.88;2.10;;;11.80;99.90;;;;;;5072098;28;20375;-69
2022/11/24 12:44:54;;;;;;;8.70;2.22;;;11.80;99.90;;;;;;5071096;28;20454;-69
2022/11/24 12:47:32;;;;;;;6.50;2.17;;;11.70;99.90;;;;;;5071760;28;20399;-71
2022/11/24 12:50:20;;;;;;;7.78;2.08;;;11.60;99.90;;;;;;5071789;28;20446;-70
2022/11/24 12:53:02;;;;;;;6.28;1.98;;;11.50;99.90;;;;;;5070653;28;20498;-70
2022/11/24 12:55:31;;;;;;;5.38;1.52;;;11.50;99.90;;;;;;5071503;28;20502;-71
2022/11/24 12:58:11;;;;;;;4.50;1.52;;;11.50;99.90;;;;;;5069582;28;20380;-71
2022/11/24 13:00:53;;;;;;;5.07;2.00;;;11.50;99.90;;;;;;5058223;28;20743;-70
2022/11/24 13:03:37;;;;;;;5.57;1.80;;;11.50;99.90;;;;;;5032281;28;20403;-70
2022/11/24 13:06:18;;;;;;;7.10;2.22;;;11.50;99.90;;;;;;5055061;28;20471;-71
2022/11/24 13:08:44;;;;;;;5.20;2.20;;;11.40;99.90;;;;;;5061278;28;20442;-70